Main page
METAR-TAF:

METAR-TAF

Airports :

Glasgow Airport

Glasgow, Scotland

latitude: 55-52N, longitude: 004-26W, elevation: 8 m

Current weather observation

The report was made 29 minutes ago, at 17:20 UTC
Wind 21 kt from the South
Temperature 13°C
Humidity 88%
Pressure 1012 hPa
Visibility 10 km or more
light rain

METAR: EGPF 151720Z AUTO 19021KT 9999 -RA //////CB 13/11 Q1012

Time: 17:49 (17:49 UTC)

Forecast

The report was made 58 minutes ago, at 16:51 UTC
Forecast valid from 15 at 18 UTC to 16 at 18 UTC
Wind 5 kt from the South
Visibility 10 km or more
Broken clouds at a height of 1800 ft
Temporary
from 15 at 18 UTC to 15 at 20 UTC
Visibility: 7000 m
Broken clouds at a height of 1200 ft
rain
Probability 40% :
Temporary
from 16 at 05 UTC to 16 at 09 UTC
Visibility: 8000 m
Broken clouds at a height of 1400 ft
light rain

TAF: EGPF 151651Z 1518/1618 18005KT 9999 BKN018 TEMPO 1518/1520 7000 RA BKN012 PROB40 TEMPO 1605/1609 8000 -RA BKN014

Weather observations and forecasts of more than 4000 airports (METAR and TAF reports).

The available stations are represented by yellow and red dots on the map.

Hover mouse over dot to see the name of the station.

Then click to see weather observations and forecasts.

To change the map : click on the green buttons with a black cross to zoom in, on the green button with a dash to zoom out, or on the green arrows for adjacent maps.


METAR-TAF: